Observation data for Sundown on 01/21/2019      Previous  Date  Next       Current Mesonet Observations  Soil Data  Daily Summary Page  Observations in Plain Language
KSDS 210600Z 19008KT 04/M05 A3001 RMK A01 T00411045  RH  054%=      5-min Rain = 0
KSDS 210605Z 19008KT 04/M05 A3001 RMK A01 T00371045  RH  055%=      5-min Rain = 0
KSDS 210610Z 19009KT 03/M05 A30 RMK A01 T00331046  RH  056%=      5-min Rain = 0
KSDS 210615Z 19009KT 03/M05 A30 RMK A01 T00311045  RH  057%=      5-min Rain = 0
KSDS 210620Z 20008KT 03/M05 A30 RMK A01 T00301046  RH  058%=      5-min Rain = 0
KSDS 210625Z 20009KT 03/M05 A30 RMK A01 T00281046  RH  058%=      5-min Rain = 0
KSDS 210630Z 20009KT 03/M05 A30 RMK A01 T00271046  RH  059%=      5-min Rain = 0
KSDS 210635Z 20009KT 03/M05 A2999 RMK A01 T00281045  RH  059%=      5-min Rain = 0
KSDS 210640Z 20009KT 03/M05 A2999 RMK A01 T00291045  RH  058%=      5-min Rain = 0
KSDS 210645Z 21010KT 03/M05 A2999 RMK A01 T00271046  RH  059%=      5-min Rain = 0
KSDS 210650Z 21011KT 03/M05 A2999 RMK A01 T00281046  RH  058%=      5-min Rain = 0
KSDS 210655Z 21012KT 03/M05 A2998 RMK A01 T00341045  RH  057%=      5-min Rain = 0
KSDS 210700Z 21012KT 04/M04 A2998 RMK A01 T00401043  RH  055%=      5-min Rain = 0
KSDS 210705Z 21011KT 05/M04 A2998 RMK A01 T00451042  RH  053%=      5-min Rain = 0
KSDS 210710Z 21011KT 05/M04 A2998 RMK A01 T00461043  RH  053%=      5-min Rain = 0
KSDS 210715Z 20010KT 04/M04 A2998 RMK A01 T00421044  RH  054%=      5-min Rain = 0
KSDS 210720Z 20010KT 04/M04 A2997 RMK A01 T00371044  RH  056%=      5-min Rain = 0
KSDS 210725Z 20010KT 04/M04 A2997 RMK A01 T00351044  RH  056%=      5-min Rain = 0
KSDS 210730Z 20010KT 04/M04 A2996 RMK A01 T00351044  RH  057%=      5-min Rain = 0
KSDS 210735Z 20010KT 03/M04 A2996 RMK A01 T00341044  RH  057%=      5-min Rain = 0
KSDS 210740Z 21010KT 03/M04 A2996 RMK A01 T00341043  RH  057%=      5-min Rain = 0
KSDS 210745Z 21010KT 04/M04 A2996 RMK A01 T00361043  RH  057%=      5-min Rain = 0
KSDS 210750Z 21010KT 04/M04 A2996 RMK A01 T00361043  RH  056%=      5-min Rain = 0
KSDS 210755Z 21010KT 04/M04 A2996 RMK A01 T00351043  RH  057%=      5-min Rain = 0
KSDS 210800Z 21010KT 04/M04 A2995 RMK A01 T00351043  RH  057%=      5-min Rain = 0
KSDS 210805Z 21010KT 04/M04 A2995 RMK A01 T00351043  RH  057%=      5-min Rain = 0
KSDS 210810Z 21009KT 04/M04 A2995 RMK A01 T00361043  RH  057%=      5-min Rain = 0
KSDS 210815Z 21009KT 04/M04 A2995 RMK A01 T00361043  RH  057%=      5-min Rain = 0
KSDS 210820Z 21009KT 04/M04 A2994 RMK A01 T00361043  RH  057%=      5-min Rain = 0
KSDS 210825Z 21009KT 04/M04 A2994 RMK A01 T00361042  RH  057%=      5-min Rain = 0
KSDS 210830Z 21010KT 04/M04 A2994 RMK A01 T00361042  RH  057%=      5-min Rain = 0
KSDS 210835Z 21010KT 04/M04 A2994 RMK A01 T00351041  RH  058%=      5-min Rain = 0
KSDS 210840Z 21010KT 04/M04 A2993 RMK A01 T00361040  RH  058%=      5-min Rain = 0
KSDS 210845Z 21010KT 04/M04 A2993 RMK A01 T00361040  RH  058%=      5-min Rain = 0
KSDS 210850Z 21009KT 03/M04 A2993 RMK A01 T00341041  RH  058%=      5-min Rain = 0
KSDS 210855Z 21009KT 03/M04 A2993 RMK A01 T00311041  RH  059%=      5-min Rain = 0
KSDS 210900Z 21010KT 03/M04 A2994 RMK A01 T00281041  RH  060%=      5-min Rain = 0
KSDS 210905Z 21010KT 03/M04 A2993 RMK A01 T00261042  RH  061%=      5-min Rain = 0
KSDS 210910Z 21009KT 02/M04 A2993 RMK A01 T00221043  RH  063%=      5-min Rain = 0
KSDS 210915Z 21008KT 02/M04 A2993 RMK A01 T00171044  RH  064%=      5-min Rain = 0
KSDS 210920Z 21009KT 01/M05 A2993 RMK A01 T00131045  RH  066%=      5-min Rain = 0
KSDS 210925Z 21008KT 01/M05 A2993 RMK A01 T00091046  RH  067%=      5-min Rain = 0
KSDS 210930Z 21009KT 01/M05 A2993 RMK A01 T00061046  RH  068%=      5-min Rain = 0
KSDS 210935Z 21008KT 00/M05 A2993 RMK A01 T00041047  RH  069%=      5-min Rain = 0
KSDS 210940Z 20008KT 00/M05 A2992 RMK A01 T00021047  RH  070%=      5-min Rain = 0
KSDS 210945Z 21008KT 00/M05 A2992 RMK A01 T00011047  RH  071%=      5-min Rain = 0
KSDS 210950Z 21008KT 00/M05 A2992 RMK A01 T00011046  RH  071%=      5-min Rain = 0
KSDS 210955Z 21008KT 00/M05 A2992 RMK A01 T00021045  RH  071%=      5-min Rain = 0
KSDS 211000Z 20009KT 00/M04 A2991 RMK A01 T00021044  RH  071%=      5-min Rain = 0
KSDS 211005Z 20010KT 01/M04 A2991 RMK A01 T00071041  RH  071%=      5-min Rain = 0
KSDS 211010Z 20010KT 02/M04 A2991 RMK A01 T00151037  RH  069%=      5-min Rain = 0
KSDS 211015Z 21009KT 02/M04 A2991 RMK A01 T00161037  RH  068%=      5-min Rain = 0
KSDS 211020Z 21009KT 02/M04 A2991 RMK A01 T00161038  RH  068%=      5-min Rain = 0
KSDS 211025Z 21009KT 02/M04 A2991 RMK A01 T00161038  RH  068%=      5-min Rain = 0
KSDS 211030Z 21008KT 01/M04 A299 RMK A01 T00141038  RH  068%=      5-min Rain = 0
KSDS 211035Z 21008KT 01/M04 A299 RMK A01 T00121038  RH  069%=      5-min Rain = 0
KSDS 211040Z 21008KT 01/M04 A299 RMK A01 T00121038  RH  069%=      5-min Rain = 0
KSDS 211045Z 21008KT 01/M04 A299 RMK A01 T00131038  RH  069%=      5-min Rain = 0
KSDS 211050Z 21007KT 01/M04 A299 RMK A01 T00131037  RH  069%=      5-min Rain = 0
KSDS 211055Z 21007KT 01/M04 A299 RMK A01 T00131037  RH  070%=      5-min Rain = 0
KSDS 211100Z 22007KT 01/M04 A299 RMK A01 T00141036  RH  069%=      5-min Rain = 0
KSDS 211105Z 22007KT 02/M04 A299 RMK A01 T00171035  RH  069%=      5-min Rain = 0
KSDS 211110Z 22008KT 02/M03 A299 RMK A01 T00191034  RH  068%=      5-min Rain = 0
KSDS 211115Z 22008KT 02/M03 A299 RMK A01 T00201034  RH  068%=      5-min Rain = 0
KSDS 211120Z 21007KT 02/M04 A2989 RMK A01 T00181035  RH  068%=      5-min Rain = 0
KSDS 211125Z 22007KT 02/M04 A2989 RMK A01 T00181035  RH  069%=      5-min Rain = 0
KSDS 211130Z 21008KT 02/M04 A2989 RMK A01 T00181035  RH  068%=      5-min Rain = 0
KSDS 211135Z 21009KT 02/M04 A2989 RMK A01 T00171035  RH  068%=      5-min Rain = 0
KSDS 211140Z 21009KT 02/M04 A2989 RMK A01 T00181035  RH  068%=      5-min Rain = 0
KSDS 211145Z 21008KT 02/M04 A2989 RMK A01 T00191035  RH  068%=      5-min Rain = 0
KSDS 211150Z 21008KT 02/M04 A2989 RMK A01 T00181036  RH  068%=      5-min Rain = 0
KSDS 211155Z 21008KT 02/M04 A2989 RMK A01 T00151037  RH  069%=      5-min Rain = 0
KSDS 211200Z 21008KT 01/M04 A299 RMK A01 T00121037  RH  070%=      5-min Rain = 0
KSDS 211205Z 21009KT 01/M04 A299 RMK A01 T00131036  RH  070%=      5-min Rain = 0
KSDS 211210Z 22008KT 02/M04 A299 RMK A01 T00151035  RH  069%=      5-min Rain = 0
KSDS 211215Z 21008KT 02/M03 A2989 RMK A01 T00171034  RH  069%=      5-min Rain = 0
KSDS 211220Z 22007KT 02/M03 A2989 RMK A01 T00201034  RH  068%=      5-min Rain = 0
KSDS 211225Z 24006KT 02/M04 A2989 RMK A01 T00171036  RH  068%=      5-min Rain = 0
KSDS 211230Z 24006KT 00/M05 A2989 RMK A01 T00021046  RH  071%=      5-min Rain = 0
KSDS 211235Z 24007KT M01/M05 A2989 RMK A01 T10071046  RH  075%=      5-min Rain = 0
KSDS 211240Z 23006KT M01/M05 A2989 RMK A01 T10071046  RH  075%=      5-min Rain = 0
KSDS 211245Z 23006KT M01/M05 A2989 RMK A01 T10061045  RH  075%=      5-min Rain = 0
KSDS 211250Z 22007KT M01/M05 A2989 RMK A01 T10051045  RH  075%=      5-min Rain = 0
KSDS 211255Z 22007KT M01/M05 A2989 RMK A01 T10051045  RH  075%=      5-min Rain = 0
KSDS 211300Z 22007KT M00/M05 A2989 RMK A01 T10041045  RH  075%=      5-min Rain = 0
KSDS 211305Z 21007KT M00/M04 A2989 RMK A01 T10021043  RH  074%=      5-min Rain = 0
KSDS 211310Z 21008KT 00/M04 A2988 RMK A01 T00011042  RH  073%=      5-min Rain = 0
KSDS 211315Z 21008KT M00/M04 A2988 RMK A01 T10031044  RH  074%=      5-min Rain = 0
KSDS 211320Z 21009KT M00/M04 A2988 RMK A01 T10041043  RH  075%=      5-min Rain = 0
KSDS 211325Z 21009KT M00/M04 A2988 RMK A01 T10041041  RH  076%=      5-min Rain = 0
KSDS 211330Z 21009KT M00/M04 A2988 RMK A01 T10011040  RH  076%=      5-min Rain = 0
KSDS 211335Z 21010KT 00/M04 A2988 RMK A01 T00031038  RH  074%=      5-min Rain = 0
KSDS 211340Z 21010KT 01/M04 A2988 RMK A01 T00081036  RH  073%=      5-min Rain = 0
KSDS 211345Z 21011KT 01/M04 A2988 RMK A01 T00111036  RH  072%=      5-min Rain = 0
KSDS 211350Z 21011KT 02/M04 A2988 RMK A01 T00161035  RH  069%=      5-min Rain = 0
KSDS 211355Z 21011KT 02/M04 A2988 RMK A01 T00181036  RH  068%=      5-min Rain = 0
KSDS 211400Z 21011KT 02/M04 A2988 RMK A01 T00201036  RH  067%=      5-min Rain = 0
KSDS 211405Z 20011KT 02/M04 A2987 RMK A01 T00211037  RH  066%=      5-min Rain = 0
KSDS 211410Z 21010KT 02/M04 A2988 RMK A01 T00221037  RH  066%=      5-min Rain = 0
KSDS 211415Z 23009KT 03/M04 A2988 RMK A01 T00251037  RH  064%=      5-min Rain = 0
KSDS 211420Z 24008KT 03/M04 A2989 RMK A01 T00281037  RH  063%=      5-min Rain = 0
KSDS 211425Z 23008KT 03/M04 A2988 RMK A01 T00291037  RH  062%=      5-min Rain = 0
KSDS 211430Z 23008KT 03/M04 A2988 RMK A01 T00301037  RH  062%=      5-min Rain = 0
KSDS 211435Z 23009KT 03/M04 A2988 RMK A01 T00311037  RH  061%=      5-min Rain = 0
KSDS 211440Z 22009KT 04/M04 A2988 RMK A01 T00351037  RH  060%=      5-min Rain = 0
KSDS 211445Z 23009G14KT 04/M04 A2988 RMK A01 T00411037  RH  057%=      5-min Rain = 0
KSDS 211450Z 23012G18KT 05/M04 A2988 RMK A01 T00521037  RH  053%=      5-min Rain = 0
KSDS 211455Z 22013G18KT 06/M04 A2987 RMK A01 T00611038  RH  049%=      5-min Rain = 0
KSDS 211500Z 22013G18KT 07/M04 A2987 RMK A01 T00651039  RH  048%=      5-min Rain = 0
KSDS 211505Z 22013KT 07/M04 A2987 RMK A01 T00711039  RH  046%=      5-min Rain = 0
KSDS 211510Z 22015KT 07/M04 A2987 RMK A01 T00741042  RH  044%=      5-min Rain = 0
KSDS 211515Z 23012KT 08/M04 A2987 RMK A01 T00761042  RH  043%=      5-min Rain = 0
KSDS 211520Z 22011KT 08/M04 A2987 RMK A01 T00781043  RH  042%=      5-min Rain = 0
KSDS 211525Z 22013G19KT 08/M04 A2987 RMK A01 T00831043  RH  041%=      5-min Rain = 0
KSDS 211530Z 22014KT 09/M04 A2987 RMK A01 T00891044  RH  039%=      5-min Rain = 0
KSDS 211535Z 22013KT 09/M04 A2987 RMK A01 T00941044  RH  038%=      5-min Rain = 0
KSDS 211540Z 22013KT 10/M05 A2987 RMK A01 T01001045  RH  036%=      5-min Rain = 0
KSDS 211545Z 22012G17KT 11/M05 A2987 RMK A01 T01051046  RH  034%=      5-min Rain = 0
KSDS 211550Z 22013G18KT 10/M05 A2986 RMK A01 T01041049  RH  034%=      5-min Rain = 0
KSDS 211555Z 22011KT 11/M05 A2986 RMK A01 T01071049  RH  033%=      5-min Rain = 0
KSDS 211600Z 22014G21KT 11/M05 A2986 RMK A01 T01101048  RH  033%=      5-min Rain = 0
KSDS 211605Z 22011G16KT 12/M05 A2986 RMK A01 T01161047  RH  032%=      5-min Rain = 0
KSDS 211610Z 22012KT 12/M05 A2986 RMK A01 T01211048  RH  031%=      5-min Rain = 0
KSDS 211615Z 21014KT 13/M05 A2986 RMK A01 T01281049  RH  029%=      5-min Rain = 0
KSDS 211620Z 22015KT 13/M05 A2986 RMK A01 T01341051  RH  027%=      5-min Rain = 0
KSDS 211625Z 22013G18KT 14/M05 A2986 RMK A01 T01391050  RH  027%=      5-min Rain = 0
KSDS 211630Z 22014KT 14/M05 A2986 RMK A01 T01431050  RH  026%=      5-min Rain = 0
KSDS 211635Z 22015KT 15/M05 A2986 RMK A01 T01461051  RH  025%=      5-min Rain = 0
KSDS 211640Z 22013KT 15/M05 A2986 RMK A01 T01511051  RH  024%=      5-min Rain = 0
KSDS 211645Z 21014G19KT 15/M05 A2986 RMK A01 T01541051  RH  024%=      5-min Rain = 0
KSDS 211650Z 21014G19KT 16/M05 A2985 RMK A01 T01571052  RH  023%=      5-min Rain = 0
KSDS 211655Z 21014G19KT 16/M05 A2985 RMK A01 T01641053  RH  022%=      5-min Rain = 0
KSDS 211700Z 22016G21KT 17/M06 A2985 RMK A01 T01721058  RH  020%=      5-min Rain = 0
KSDS 211705Z 22018G25KT 17/M06 A2985 RMK A01 T01731061  RH  020%=      5-min Rain = 0
KSDS 211710Z 22020G26KT 17/M06 A2985 RMK A01 T01741063  RH  019%=      5-min Rain = 0
KSDS 211715Z 22021G27KT 18/M06 A2984 RMK A01 T01751064  RH  019%=      5-min Rain = 0
KSDS 211720Z 22021G28KT 18/M06 A2984 RMK A01 T01771062  RH  019%=      5-min Rain = 0
KSDS 211725Z 22018G24KT 18/M06 A2984 RMK A01 T01771063  RH  019%=      5-min Rain = 0
KSDS 211730Z 21019G24KT 17/M06 A2984 RMK A01 T01741063  RH  019%=      5-min Rain = 0
KSDS 211735Z 21020G28KT 17/M06 A2984 RMK A01 T01741061  RH  020%=      5-min Rain = 0
KSDS 211740Z 22018G25KT 18/M06 A2984 RMK A01 T01801058  RH  019%=      5-min Rain = 0
KSDS 211745Z 22020G26KT 18/M06 A2984 RMK A01 T01831058  RH  019%=      5-min Rain = 0
KSDS 211750Z 22022G27KT 18/M06 A2983 RMK A01 T01821059  RH  019%=      5-min Rain = 0
KSDS 211755Z 22020G26KT 18/M06 A2983 RMK A01 T01831058  RH  019%=      5-min Rain = 0
KSDS 211800Z 22021G29KT 19/M06 A2983 RMK A01 T01851058  RH  019%=      5-min Rain = 0
KSDS 211805Z 22019G27KT 19/M06 A2983 RMK A01 T01921055  RH  018%=      5-min Rain = 0
KSDS 211810Z 23023G29KT 19/M06 A2983 RMK A01 T01941057  RH  018%=      5-min Rain = 0
KSDS 211815Z 23022G29KT 20/M06 A2982 RMK A01 T02001057  RH  017%=      5-min Rain = 0
KSDS 211820Z 23023G31KT 21/M06 A2981 RMK A01 T02071059  RH  016%=      5-min Rain = 0
KSDS 211825Z 23028G35KT 20/M06 A2981 RMK A01 T02041063  RH  016%=      5-min Rain = 0
KSDS 211830Z 23023G32KT 21/M06 A298 RMK A01 T02131061  RH  015%=      5-min Rain = 0
KSDS 211835Z 22027G36KT 22/M06 A298 RMK A01 T02151064  RH  015%=      5-min Rain = 0
KSDS 211840Z 23028G34KT 21/M07 A2979 RMK A01 T02121065  RH  015%=      5-min Rain = 0
KSDS 211845Z 23025G31KT 21/M07 A2979 RMK A01 T02091066  RH  015%=      5-min Rain = 0
KSDS 211850Z 22024G35KT 21/M07 A2979 RMK A01 T02071068  RH  015%=      5-min Rain = 0
KSDS 211855Z 22026G31KT 20/M08 A2979 RMK A01 T02041075  RH  015%=      5-min Rain = 0
KSDS 211900Z 22027G34KT 21/M08 A2978 RMK A01 T02111079  RH  013%=      5-min Rain = 0
KSDS 211905Z 22025G32KT 22/M08 A2978 RMK A01 T02171080  RH  013%=      5-min Rain = 0
KSDS 211910Z 23026G34KT 22/M08 A2977 RMK A01 T02211082  RH  012%=      5-min Rain = 0
KSDS 211915Z 22025G34KT 22/M08 A2977 RMK A01 T02211083  RH  012%=      5-min Rain = 0
KSDS 211920Z 22027G35KT 22/M09 A2976 RMK A01 T02221085  RH  012%=      5-min Rain = 0
KSDS 211925Z 22026G33KT 23/M09 A2976 RMK A01 T02261086  RH  012%=      5-min Rain = 0
KSDS 211930Z 23030G39KT 22/M09 A2975 RMK A01 T02201092  RH  011%=      5-min Rain = 0
KSDS 211935Z 23023G32KT 22/M09 A2976 RMK A01 T02181090  RH  012%=      5-min Rain = 0
KSDS 211940Z 23023G29KT 22/M09 A2976 RMK A01 T02191088  RH  012%=      5-min Rain = 0
KSDS 211945Z 22024G29KT 22/M09 A2975 RMK A01 T02221089  RH  012%=      5-min Rain = 0
KSDS 211950Z 23022G29KT 22/M09 A2975 RMK A01 T02221090  RH  012%=      5-min Rain = 0
KSDS 211955Z 22024G32KT 22/M09 A2975 RMK A01 T02231090  RH  012%=      5-min Rain = 0
KSDS 212000Z 22023G29KT 22/M09 A2974 RMK A01 T02241091  RH  011%=      5-min Rain = 0
KSDS 212005Z 23023G34KT 22/M09 A2974 RMK A01 T02221090  RH  012%=      5-min Rain = 0
KSDS 212010Z 22023G33KT 22/M09 A2974 RMK A01 T02191091  RH  012%=      5-min Rain = 0
KSDS 212015Z 22023G31KT 22/M09 A2973 RMK A01 T02241091  RH  011%=      5-min Rain = 0
KSDS 212020Z 22026G35KT 23/M09 A2972 RMK A01 T02291093  RH  011%=      5-min Rain = 0
KSDS 212025Z 23025G33KT 23/M09 A2971 RMK A01 T02311093  RH  011%=      5-min Rain = 0
KSDS 212030Z 23030G37KT 23/M09 A2971 RMK A01 T02281093  RH  011%=      5-min Rain = 0
KSDS 212035Z 22026G34KT 23/M09 A297 RMK A01 T02271092  RH  011%=      5-min Rain = 0
KSDS 212040Z 22025G32KT 22/M09 A297 RMK A01 T02241091  RH  011%=      5-min Rain = 0
KSDS 212045Z 22023G34KT 23/M09 A297 RMK A01 T02271088  RH  011%=      5-min Rain = 0
KSDS 212050Z 22026G34KT 23/M09 A297 RMK A01 T02261088  RH  011%=      5-min Rain = 0
KSDS 212055Z 22025G33KT 23/M09 A297 RMK A01 T02261087  RH  012%=      5-min Rain = 0
KSDS 212100Z 22024G31KT 23/M09 A297 RMK A01 T02281086  RH  012%=      5-min Rain = 0
KSDS 212105Z 22027G39KT 23/M09 A2969 RMK A01 T02341088  RH  011%=      5-min Rain = 0
KSDS 212110Z 22026G33KT 23/M09 A2968 RMK A01 T02321088  RH  011%=      5-min Rain = 0
KSDS 212115Z 22026G34KT 24/M09 A2968 RMK A01 T02351088  RH  011%=      5-min Rain = 0
KSDS 212120Z 23024G31KT 24/M09 A2968 RMK A01 T02361090  RH  011%=      5-min Rain = 0
KSDS 212125Z 22026G33KT 23/M09 A2968 RMK A01 T02311090  RH  011%=      5-min Rain = 0
KSDS 212130Z 23024G33KT 23/M09 A2968 RMK A01 T02321090  RH  011%=      5-min Rain = 0
KSDS 212135Z 22026G32KT 23/M09 A2968 RMK A01 T02331093  RH  011%=      5-min Rain = 0
KSDS 212140Z 22028G39KT 23/M10 A2968 RMK A01 T02311097  RH  010%=      5-min Rain = 0
KSDS 212145Z 23031G40KT 23/M10 A2968 RMK A01 T02291101  RH  010%=      5-min Rain = 0
KSDS 212150Z 23027G40KT 23/M10 A2968 RMK A01 T02291101  RH  010%=      5-min Rain = 0
KSDS 212155Z 23022G33KT 23/M10 A2968 RMK A01 T02311099  RH  010%=      5-min Rain = 0
KSDS 212200Z 22027G37KT 23/M10 A2967 RMK A01 T02291100  RH  010%=      5-min Rain = 0
KSDS 212205Z 22025G36KT 23/M10 A2967 RMK A01 T02281099  RH  010%=      5-min Rain = 0
KSDS 212210Z 22026G34KT 23/M10 A2967 RMK A01 T02261099  RH  011%=      5-min Rain = 0
KSDS 212215Z 22026G33KT 23/M10 A2967 RMK A01 T02251098  RH  011%=      5-min Rain = 0
KSDS 212220Z 22029G36KT 22/M10 A2967 RMK A01 T02241098  RH  011%=      5-min Rain = 0
KSDS 212225Z 22028G35KT 22/M10 A2967 RMK A01 T02231099  RH  011%=      5-min Rain = 0
KSDS 212230Z 22026G33KT 22/M10 A2967 RMK A01 T02231097  RH  011%=      5-min Rain = 0
KSDS 212235Z 22021G29KT 22/M10 A2968 RMK A01 T02221095  RH  011%=      5-min Rain = 0
KSDS 212240Z 22025G32KT 22/M10 A2967 RMK A01 T02221096  RH  011%=      5-min Rain = 0
KSDS 212245Z 22023G30KT 22/M10 A2968 RMK A01 T02211095  RH  011%=      5-min Rain = 0
KSDS 212250Z 22021G27KT 22/M10 A2968 RMK A01 T02201095  RH  011%=      5-min Rain = 0
KSDS 212255Z 22018G27KT 22/M09 A2968 RMK A01 T02181094  RH  011%=      5-min Rain = 0
KSDS 212300Z 22021G28KT 22/M10 A2968 RMK A01 T02171096  RH  011%=      5-min Rain = 0
KSDS 212305Z 22020G29KT 22/M10 A2968 RMK A01 T02161096  RH  011%=      5-min Rain = 0
KSDS 212310Z 21019G25KT 22/M10 A2967 RMK A01 T02151096  RH  012%=      5-min Rain = 0
KSDS 212315Z 22019G24KT 21/M10 A2967 RMK A01 T02131095  RH  012%=      5-min Rain = 0
KSDS 212320Z 22016G22KT 21/M10 A2967 RMK A01 T02121095  RH  012%=      5-min Rain = 0
KSDS 212325Z 21014G19KT 21/M09 A2967 RMK A01 T02101093  RH  012%=      5-min Rain = 0
KSDS 212330Z 21011KT 21/M09 A2967 RMK A01 T02061092  RH  013%=      5-min Rain = 0
KSDS 212335Z 22013KT 21/M09 A2967 RMK A01 T02051091  RH  013%=      5-min Rain = 0
KSDS 212340Z 22012KT 20/M09 A2967 RMK A01 T02041091  RH  013%=      5-min Rain = 0
KSDS 212345Z 22011KT 20/M09 A2967 RMK A01 T02021091  RH  013%=      5-min Rain = 0
KSDS 212350Z 22009KT 20/M09 A2967 RMK A01 T01981090  RH  013%=      5-min Rain = 0
KSDS 212355Z 21009G14KT 19/M09 A2967 RMK A01 T01941089  RH  014%=      5-min Rain = 0
KSDS 220000Z 21009G14KT 20/M09 A2967 RMK A01 T01951089  RH  014%=      5-min Rain = 0
KSDS 220005Z 21007KT 19/M09 A2967 RMK A01 T01941089  RH  014%=      5-min Rain = 0
KSDS 220010Z 20007KT 19/M09 A2967 RMK A01 T01911090  RH  014%=      5-min Rain = 0
KSDS 220015Z 21009KT 19/M09 A2967 RMK A01 T01891089  RH  014%=      5-min Rain = 0
KSDS 220020Z 21011KT 19/M09 A2966 RMK A01 T01901090  RH  014%=      5-min Rain = 0
KSDS 220025Z 21012KT 19/M09 A2966 RMK A01 T01921091  RH  014%=      5-min Rain = 0
KSDS 220030Z 21013G18KT 19/M09 A2966 RMK A01 T01931091  RH  014%=      5-min Rain = 0
KSDS 220035Z 22013G18KT 19/M09 A2966 RMK A01 T01931092  RH  014%=      5-min Rain = 0
KSDS 220040Z 22015G23KT 20/M09 A2966 RMK A01 T01961094  RH  013%=      5-min Rain = 0
KSDS 220045Z 22017G23KT 20/M10 A2966 RMK A01 T01991095  RH  013%=      5-min Rain = 0
KSDS 220050Z 22016KT 20/M10 A2966 RMK A01 T01981095  RH  013%=      5-min Rain = 0
KSDS 220055Z 22015G23KT 20/M09 A2966 RMK A01 T01961094  RH  013%=      5-min Rain = 0
KSDS 220100Z 23016G22KT 19/M09 A2967 RMK A01 T01941093  RH  013%=      5-min Rain = 0
KSDS 220105Z 22015KT 19/M09 A2967 RMK A01 T01931093  RH  013%=      5-min Rain = 0
KSDS 220110Z 21013KT 19/M09 A2967 RMK A01 T01851091  RH  014%=      5-min Rain = 0
KSDS 220115Z 22012KT 18/M09 A2967 RMK A01 T01811089  RH  015%=      5-min Rain = 0
KSDS 220120Z 22012G17KT 18/M09 A2967 RMK A01 T01791088  RH  015%=      5-min Rain = 0
KSDS 220125Z 22012KT 18/M09 A2967 RMK A01 T01781089  RH  015%=      5-min Rain = 0
KSDS 220130Z 22011KT 18/M09 A2967 RMK A01 T01781089  RH  015%=      5-min Rain = 0
KSDS 220135Z 22010KT 18/M09 A2967 RMK A01 T01751089  RH  016%=      5-min Rain = 0
KSDS 220140Z 22008KT 17/M09 A2967 RMK A01 T01701088  RH  016%=      5-min Rain = 0
KSDS 220145Z 21008KT 17/M09 A2967 RMK A01 T01671087  RH  017%=      5-min Rain = 0
KSDS 220150Z 21008KT 17/M09 A2967 RMK A01 T01671087  RH  017%=      5-min Rain = 0
KSDS 220155Z 21008KT 17/M09 A2967 RMK A01 T01671088  RH  017%=      5-min Rain = 0
KSDS 220200Z 20008KT 16/M09 A2967 RMK A01 T01631087  RH  017%=      5-min Rain = 0
KSDS 220205Z 20008KT 16/M09 A2967 RMK A01 T01601086  RH  018%=      5-min Rain = 0
KSDS 220210Z 20007KT 16/M09 A2967 RMK A01 T01571086  RH  018%=      5-min Rain = 0
KSDS 220215Z 19007KT 15/M09 A2967 RMK A01 T01501086  RH  019%=      5-min Rain = 0
KSDS 220220Z 16009KT 14/M08 A2967 RMK A01 T01421084  RH  020%=      5-min Rain = 0
KSDS 220225Z 16013KT 14/M08 A2967 RMK A01 T01401080  RH  021%=      5-min Rain = 0
KSDS 220230Z 17012G18KT 15/M08 A2967 RMK A01 T01471077  RH  020%=      5-min Rain = 0
KSDS 220235Z 17010KT 15/M07 A2967 RMK A01 T01471072  RH  021%=      5-min Rain = 0
KSDS 220240Z 16009KT 14/M06 A2967 RMK A01 T01441059  RH  024%=      5-min Rain = 0
KSDS 220245Z 16010KT 14/M04 A2967 RMK A01 T01411042  RH  028%=      5-min Rain = 0
KSDS 220250Z 16010KT 14/M03 A2967 RMK A01 T01391031  RH  031%=      5-min Rain = 0
KSDS 220255Z 16009KT 14/M02 A2967 RMK A01 T01361024  RH  033%=      5-min Rain = 0
KSDS 220300Z 16009KT 13/M02 A2967 RMK A01 T01331020  RH  035%=      5-min Rain = 0
KSDS 220305Z 15009KT 13/M02 A2967 RMK A01 T01301017  RH  036%=      5-min Rain = 0
KSDS 220310Z 16010KT 13/M02 A2967 RMK A01 T01291015  RH  037%=      5-min Rain = 0
KSDS 220315Z 16011KT 13/M01 A2967 RMK A01 T01301014  RH  037%=      5-min Rain = 0
KSDS 220320Z 16012KT 13/M01 A2967 RMK A01 T01301014  RH  037%=      5-min Rain = 0
KSDS 220325Z 17013G18KT 13/M01 A2967 RMK A01 T01311014  RH  037%=      5-min Rain = 0
KSDS 220330Z 17015KT 13/M01 A2967 RMK A01 T01321014  RH  037%=      5-min Rain = 0
KSDS 220335Z 18015KT 13/M01 A2967 RMK A01 T01321013  RH  037%=      5-min Rain = 0
KSDS 220340Z 18014G19KT 13/M01 A2967 RMK A01 T01311013  RH  037%=      5-min Rain = 0
KSDS 220345Z 18015G20KT 13/M01 A2967 RMK A01 T01311012  RH  037%=      5-min Rain = 0
KSDS 220350Z 18014KT 13/M01 A2967 RMK A01 T01301011  RH  038%=      5-min Rain = 0
KSDS 220355Z 18013KT 13/M01 A2967 RMK A01 T01281011  RH  039%=      5-min Rain = 0
KSDS 220400Z 18013KT 13/M01 A2967 RMK A01 T01271010  RH  039%=      5-min Rain = 0
KSDS 220405Z 18012G17KT 12/M01 A2967 RMK A01 T01241010  RH  040%=      5-min Rain = 0
KSDS 220410Z 18012KT 12/M01 A2967 RMK A01 T01231009  RH  040%=      5-min Rain = 0
KSDS 220415Z 18012KT 12/M01 A2967 RMK A01 T01201009  RH  041%=      5-min Rain = 0
KSDS 220420Z 18012KT 12/M01 A2967 RMK A01 T01191008  RH  042%=      5-min Rain = 0
KSDS 220425Z 18013KT 12/M01 A2967 RMK A01 T01171008  RH  042%=      5-min Rain = 0
KSDS 220430Z 18013KT 12/M01 A2967 RMK A01 T01161008  RH  043%=      5-min Rain = 0
KSDS 220435Z 18013G18KT 11/M01 A2967 RMK A01 T01141008  RH  043%=      5-min Rain = 0
KSDS 220440Z 18014G20KT 11/M01 A2967 RMK A01 T01131008  RH  044%=      5-min Rain = 0
KSDS 220445Z 18014KT 11/M01 A2967 RMK A01 T01121008  RH  044%=      5-min Rain = 0
KSDS 220450Z 18014G19KT 11/M01 A2967 RMK A01 T01111008  RH  044%=      5-min Rain = 0
KSDS 220455Z 18013KT 11/M01 A2967 RMK A01 T01091008  RH  045%=      5-min Rain = 0
KSDS 220500Z 18015KT 11/M01 A2967 RMK A01 T01081008  RH  045%=      5-min Rain = 0
KSDS 220505Z 18015G20KT 11/M01 A2967 RMK A01 T01071008  RH  045%=      5-min Rain = 0
KSDS 220510Z 18014KT 11/M01 A2967 RMK A01 T01051008  RH  046%=      5-min Rain = 0
KSDS 220515Z 18015KT 10/M01 A2967 RMK A01 T01041008  RH  046%=      5-min Rain = 0
KSDS 220520Z 18015KT 10/M01 A2967 RMK A01 T01031008  RH  047%=      5-min Rain = 0
KSDS 220525Z 18015KT 10/M01 A2967 RMK A01 T01021008  RH  047%=      5-min Rain = 0
KSDS 220530Z 18015KT 10/M01 A2967 RMK A01 T01001007  RH  048%=      5-min Rain = 0
KSDS 220535Z 18016KT 10/M01 A2967 RMK A01 T00991007  RH  048%=      5-min Rain = 0
KSDS 220540Z 18015G21KT 10/M01 A2967 RMK A01 T00971007  RH  049%=      5-min Rain = 0
KSDS 220545Z 18015G21KT 10/M01 A2967 RMK A01 T00961007  RH  049%=      5-min Rain = 0
KSDS 220550Z 18016G21KT 10/M01 A2967 RMK A01 T00951006  RH  050%=      5-min Rain = 0
KSDS 220555Z 18015G20KT 09/M01 A2967 RMK A01 T00941005  RH  050%=      5-min Rain = 0

Page generated in 0.0096 seconds.